createdAt,value
2019-03-03T00:00:06.503Z,21.61
2019-03-03T00:02:33.141Z,21.60
2019-03-03T00:04:59.821Z,21.56
2019-03-03T00:07:26.460Z,21.57
2019-03-03T00:09:53.153Z,21.59
2019-03-03T00:12:19.826Z,21.58
2019-03-03T00:14:46.523Z,21.52
2019-03-03T00:17:13.171Z,21.51
2019-03-03T00:19:39.859Z,21.55
2019-03-03T00:22:06.465Z,21.54
2019-03-03T00:24:33.149Z,21.57
2019-03-03T00:26:59.792Z,21.56
2019-03-03T00:29:26.474Z,21.56
2019-03-03T00:31:53.148Z,21.49
2019-03-03T00:34:19.790Z,21.48
2019-03-03T00:36:46.460Z,21.44
2019-03-03T00:39:13.110Z,21.47
2019-03-03T00:41:39.766Z,21.47
2019-03-03T00:44:06.421Z,21.51
2019-03-03T00:46:33.066Z,21.46
2019-03-03T00:48:59.734Z,21.48
2019-03-03T00:51:26.365Z,21.43
2019-03-03T00:53:53.010Z,21.45
2019-03-03T00:56:19.649Z,21.42
2019-03-03T00:58:46.298Z,21.41
2019-03-03T01:01:12.944Z,21.38
2019-03-03T01:03:39.587Z,21.40
2019-03-03T01:06:06.268Z,21.37
2019-03-03T01:08:32.909Z,21.31
2019-03-03T01:10:59.599Z,21.37
2019-03-03T01:13:26.329Z,21.39
2019-03-03T01:15:53.013Z,21.31
2019-03-03T01:18:19.658Z,21.35
2019-03-03T01:20:46.308Z,21.34
2019-03-03T01:23:12.948Z,21.30
2019-03-03T01:25:39.631Z,21.31
2019-03-03T01:28:06.277Z,21.31
2019-03-03T01:30:32.966Z,21.34
2019-03-03T01:32:59.599Z,21.28
2019-03-03T01:35:26.277Z,21.27
2019-03-03T01:37:52.912Z,21.33
2019-03-03T01:40:19.619Z,21.28
2019-03-03T01:42:46.345Z,21.32
2019-03-03T01:45:12.988Z,21.27
2019-03-03T01:47:39.677Z,21.21
2019-03-03T01:50:06.321Z,21.21
2019-03-03T01:52:32.973Z,21.26
2019-03-03T01:54:59.657Z,21.22
2019-03-03T01:57:26.336Z,21.18
2019-03-03T01:59:52.985Z,21.23
2019-03-03T02:02:19.727Z,21.18
2019-03-03T02:04:46.402Z,21.20
2019-03-03T02:07:13.048Z,21.22
2019-03-03T02:09:42.533Z,21.18
2019-03-03T02:12:09.176Z,21.16
2019-03-03T02:14:35.834Z,21.16
2019-03-03T02:17:02.472Z,21.18
2019-03-03T02:19:29.126Z,21.14
2019-03-03T02:21:55.765Z,21.09
2019-03-03T02:24:22.412Z,21.08
2019-03-03T02:26:49.143Z,21.04
2019-03-03T02:29:15.784Z,21.07
2019-03-03T02:31:42.417Z,21.06
2019-03-03T02:34:09.097Z,21.07
2019-03-03T02:36:35.743Z,21.04
2019-03-03T02:39:02.382Z,20.98
2019-03-03T02:41:29.029Z,21.03
2019-03-03T02:43:55.674Z,21.01
2019-03-03T02:46:22.403Z,20.96
2019-03-03T02:48:49.046Z,21.05
2019-03-03T02:51:15.691Z,20.97
2019-03-03T02:53:43.651Z,21.01
2019-03-03T02:56:09.012Z,20.99
2019-03-03T02:58:35.646Z,21.00
2019-03-03T03:01:02.306Z,20.96
2019-03-03T03:03:28.942Z,20.94
2019-03-03T03:05:55.601Z,20.96
2019-03-03T03:08:22.256Z,20.90
2019-03-03T03:10:48.940Z,20.95
2019-03-03T03:13:15.596Z,20.91
2019-03-03T03:15:42.234Z,20.90
2019-03-03T03:18:08.921Z,20.89
2019-03-03T03:20:35.558Z,20.89
2019-03-03T03:23:02.282Z,20.87
2019-03-03T03:25:28.919Z,20.92
2019-03-03T03:27:55.560Z,20.89
2019-03-03T03:30:22.247Z,20.80
2019-03-03T03:32:48.948Z,20.85
2019-03-03T03:35:15.588Z,20.83
2019-03-03T03:37:42.246Z,20.63
2019-03-03T03:40:08.886Z,20.49
2019-03-03T03:42:35.561Z,20.39
2019-03-03T03:45:02.208Z,20.37
2019-03-03T03:47:28.866Z,20.36
2019-03-03T03:49:55.497Z,20.44
2019-03-03T03:52:22.234Z,20.50
2019-03-03T03:54:48.941Z,20.55
2019-03-03T03:57:15.635Z,20.52
2019-03-03T03:59:42.316Z,20.49
2019-03-03T04:02:08.962Z,20.49
2019-03-03T04:04:35.614Z,20.47
2019-03-03T04:07:03.789Z,20.48
2019-03-03T04:09:32.121Z,20.48
2019-03-03T04:11:58.742Z,20.43
2019-03-03T04:14:25.386Z,20.51
2019-03-03T04:16:52.025Z,20.44
2019-03-03T04:19:18.713Z,20.46
2019-03-03T04:21:45.353Z,20.41
2019-03-03T04:24:12.051Z,20.44
2019-03-03T04:26:38.722Z,20.39
2019-03-03T04:29:05.371Z,20.42
2019-03-03T04:31:32.066Z,20.43
2019-03-03T04:33:58.729Z,20.38
2019-03-03T04:36:25.431Z,20.42
2019-03-03T04:38:52.061Z,20.38
2019-03-03T04:41:18.742Z,20.38
2019-03-03T04:43:45.449Z,20.37
2019-03-03T04:46:12.091Z,20.42
2019-03-03T04:48:38.732Z,20.41
2019-03-03T04:51:05.420Z,20.40
2019-03-03T04:53:32.066Z,20.40
2019-03-03T04:55:58.717Z,20.38
2019-03-03T04:58:25.356Z,20.41
2019-03-03T05:00:52.011Z,20.35
2019-03-03T05:03:18.753Z,20.35
2019-03-03T05:05:45.398Z,20.34
2019-03-03T05:08:12.059Z,20.42
2019-03-03T05:10:38.690Z,20.32
2019-03-03T05:13:05.369Z,20.31
2019-03-03T05:15:32.022Z,20.28
2019-03-03T05:17:58.776Z,20.32
2019-03-03T05:20:25.416Z,20.41
2019-03-03T05:22:52.070Z,20.34
2019-03-03T05:25:18.704Z,20.30
2019-03-03T05:27:45.402Z,20.34
2019-03-03T05:30:12.032Z,20.28
2019-03-03T05:32:38.679Z,20.32
2019-03-03T05:35:05.315Z,20.34
2019-03-03T05:37:31.988Z,20.28
2019-03-03T05:39:58.624Z,20.38
2019-03-03T05:42:25.307Z,20.40
2019-03-03T05:44:51.953Z,20.29
2019-03-03T05:47:19.794Z,20.26
2019-03-03T05:49:45.289Z,20.26
2019-03-03T05:52:11.936Z,20.26
2019-03-03T05:54:38.612Z,20.20
2019-03-03T05:57:05.293Z,20.28
2019-03-03T05:59:31.905Z,20.28
2019-03-03T06:01:58.592Z,20.25
2019-03-03T06:04:25.236Z,20.26
2019-03-03T06:06:51.869Z,20.23
2019-03-03T06:09:18.521Z,20.21
2019-03-03T06:11:45.216Z,20.22
2019-03-03T06:14:11.921Z,20.19
2019-03-03T06:16:38.572Z,20.19
2019-03-03T06:19:05.257Z,20.23
2019-03-03T06:21:31.894Z,20.17
2019-03-03T06:23:58.541Z,20.24
2019-03-03T06:26:25.260Z,20.22
2019-03-03T06:28:51.909Z,20.19
2019-03-03T06:31:18.550Z,20.24
2019-03-03T06:33:45.251Z,20.19
2019-03-03T06:36:11.889Z,20.24
2019-03-03T06:38:38.535Z,20.29
2019-03-03T06:41:05.218Z,20.23
2019-03-03T06:43:31.864Z,20.22
2019-03-03T06:45:58.499Z,20.24
2019-03-03T06:48:25.194Z,20.24
2019-03-03T06:50:52.977Z,20.24
2019-03-03T06:53:18.566Z,20.24
2019-03-03T06:55:45.215Z,20.24
2019-03-03T06:58:11.854Z,20.24
2019-03-03T07:00:38.558Z,20.24
2019-03-03T07:03:05.165Z,20.24
2019-03-03T07:05:31.803Z,20.23
2019-03-03T07:07:58.440Z,20.27
2019-03-03T07:10:25.143Z,20.27
2019-03-03T07:12:51.802Z,20.28
2019-03-03T07:15:18.435Z,20.27
2019-03-03T07:17:45.090Z,20.27
2019-03-03T07:20:11.739Z,20.27
2019-03-03T07:22:38.388Z,20.33
2019-03-03T07:25:05.036Z,20.31
2019-03-03T07:27:31.678Z,20.35
2019-03-03T07:29:58.327Z,20.34
2019-03-03T07:32:25.101Z,20.37
2019-03-03T07:34:51.739Z,20.38
2019-03-03T07:37:18.375Z,20.40
2019-03-03T07:39:45.021Z,20.39
2019-03-03T07:42:11.662Z,20.36
2019-03-03T07:44:38.364Z,20.35
2019-03-03T07:47:05.001Z,20.38
2019-03-03T07:49:31.661Z,20.42
2019-03-03T07:51:58.301Z,20.40
2019-03-03T07:54:24.981Z,20.42
2019-03-03T07:56:51.622Z,20.42
2019-03-03T07:59:18.329Z,20.40
2019-03-03T08:01:44.979Z,20.46
2019-03-03T08:04:11.616Z,20.44
2019-03-03T08:06:38.308Z,20.38
2019-03-03T08:09:04.975Z,20.44
2019-03-03T08:11:31.626Z,20.45
2019-03-03T08:13:58.263Z,20.47
2019-03-03T08:16:24.920Z,20.44
2019-03-03T08:18:51.572Z,20.53
2019-03-03T08:21:18.269Z,20.62
2019-03-03T08:23:44.915Z,20.64
2019-03-03T08:26:11.558Z,20.59
2019-03-03T08:28:39.584Z,20.68
2019-03-03T08:31:04.883Z,20.73
2019-03-03T08:33:31.516Z,20.78
2019-03-03T08:35:58.156Z,20.70
2019-03-03T08:38:24.851Z,20.75
2019-03-03T08:40:51.492Z,20.76
2019-03-03T08:43:18.171Z,20.77
2019-03-03T08:45:44.813Z,20.80
2019-03-03T08:48:11.448Z,20.83
2019-03-03T08:50:41.015Z,20.77
2019-03-03T08:53:07.668Z,20.82
2019-03-03T08:55:34.366Z,20.83
2019-03-03T08:58:01.045Z,20.81
2019-03-03T09:00:27.694Z,20.95
2019-03-03T09:02:54.334Z,20.84
2019-03-03T09:05:21.012Z,20.88
2019-03-03T09:07:47.698Z,20.93
2019-03-03T09:10:14.335Z,20.91
2019-03-03T09:12:40.988Z,20.90
2019-03-03T09:15:07.661Z,20.88
2019-03-03T09:17:34.353Z,20.91
2019-03-03T09:20:01.007Z,20.91
2019-03-03T09:22:27.701Z,20.94
2019-03-03T09:24:54.349Z,20.91
2019-03-03T09:27:21.032Z,20.95
2019-03-03T09:29:47.717Z,20.91
2019-03-03T09:32:14.355Z,20.89
2019-03-03T09:34:40.993Z,20.95
2019-03-03T09:37:07.654Z,20.95
2019-03-03T09:39:34.338Z,20.93
2019-03-03T09:42:00.980Z,20.97
2019-03-03T09:44:27.630Z,20.94
2019-03-03T09:46:54.272Z,20.99
2019-03-03T09:49:20.970Z,21.03
2019-03-03T09:51:47.605Z,21.00
2019-03-03T09:54:14.242Z,20.96
2019-03-03T09:56:40.941Z,20.96
2019-03-03T09:59:07.582Z,21.05
2019-03-03T10:01:34.235Z,21.04
2019-03-03T10:04:00.885Z,21.03
2019-03-03T10:06:27.573Z,21.01
2019-03-03T10:08:54.224Z,21.04
2019-03-03T10:11:20.865Z,21.05
2019-03-03T10:13:47.515Z,21.07
2019-03-03T10:16:14.285Z,21.11
2019-03-03T10:18:40.928Z,21.09
2019-03-03T10:21:07.562Z,21.10
2019-03-03T10:23:34.221Z,21.12
2019-03-03T10:26:00.918Z,21.13
2019-03-03T10:28:27.566Z,21.16
2019-03-03T10:30:54.196Z,21.15
2019-03-03T10:33:20.894Z,21.12
2019-03-03T10:35:47.533Z,21.12
2019-03-03T10:38:14.225Z,21.17
2019-03-03T10:40:40.871Z,21.20
2019-03-03T10:43:07.557Z,21.20
2019-03-03T10:45:34.197Z,21.22
2019-03-03T10:48:00.882Z,21.21
2019-03-03T10:50:27.674Z,21.19
2019-03-03T10:52:54.311Z,21.25
2019-03-03T10:55:21.058Z,21.24
2019-03-03T10:57:47.700Z,21.19
2019-03-03T11:00:14.379Z,21.18
2019-03-03T11:02:41.048Z,21.18
2019-03-03T11:05:07.696Z,21.15
2019-03-03T11:07:34.334Z,21.18
2019-03-03T11:10:01.031Z,21.28
2019-03-03T11:12:27.837Z,21.25
2019-03-03T11:14:54.488Z,21.23
2019-03-03T11:17:21.126Z,21.20
2019-03-03T11:19:47.781Z,21.22
2019-03-03T11:22:14.472Z,21.25
2019-03-03T11:24:41.109Z,21.22
2019-03-03T11:27:07.824Z,21.17
2019-03-03T11:29:34.461Z,21.21
2019-03-03T11:32:01.107Z,21.21
2019-03-03T11:34:29.724Z,21.23
2019-03-03T11:36:54.441Z,21.21
2019-03-03T11:39:21.135Z,21.05
2019-03-03T11:41:47.764Z,21.01
2019-03-03T11:44:14.416Z,20.83
2019-03-03T11:46:41.051Z,20.85
2019-03-03T11:49:07.740Z,20.71
2019-03-03T11:51:34.379Z,20.80
2019-03-03T11:54:01.037Z,20.78
2019-03-03T11:56:27.736Z,20.77
2019-03-03T11:58:54.381Z,20.81
2019-03-03T12:01:21.075Z,20.84
2019-03-03T12:03:47.676Z,20.85
2019-03-03T12:06:14.328Z,20.85
2019-03-03T12:08:40.973Z,20.90
2019-03-03T12:11:07.621Z,21.04
2019-03-03T12:13:34.281Z,21.00
2019-03-03T12:16:00.984Z,20.99
2019-03-03T12:18:27.621Z,21.04
2019-03-03T12:20:54.260Z,20.99
2019-03-03T12:23:20.915Z,21.00
2019-03-03T12:25:47.555Z,21.05
2019-03-03T12:28:14.204Z,21.01
2019-03-03T12:30:40.870Z,21.04
2019-03-03T12:33:07.555Z,21.03
2019-03-03T12:35:34.204Z,21.11
2019-03-03T12:38:00.848Z,21.07
2019-03-03T12:40:27.515Z,21.05
2019-03-03T12:42:54.153Z,21.06
2019-03-03T12:45:20.792Z,21.11
2019-03-03T12:47:47.443Z,21.09
2019-03-03T12:50:14.115Z,21.08
2019-03-03T12:52:40.766Z,21.10
2019-03-03T12:55:07.401Z,21.05
2019-03-03T12:57:34.048Z,21.09
2019-03-03T13:00:00.771Z,21.09
2019-03-03T13:02:27.517Z,21.08
2019-03-03T13:04:54.204Z,21.07
2019-03-03T13:07:20.891Z,21.14
2019-03-03T13:09:47.524Z,21.10
2019-03-03T13:12:14.252Z,21.13
2019-03-03T13:14:40.901Z,21.15
2019-03-03T13:17:07.606Z,21.13
2019-03-03T13:19:34.293Z,21.14
2019-03-03T13:22:00.936Z,21.19
2019-03-03T13:24:27.616Z,21.18
2019-03-03T13:26:54.262Z,21.20
2019-03-03T13:29:20.901Z,21.21
2019-03-03T13:31:47.565Z,21.19
2019-03-03T13:34:14.208Z,21.19
2019-03-03T13:36:40.853Z,21.20
2019-03-03T13:39:07.496Z,21.21
2019-03-03T13:41:34.185Z,21.23
2019-03-03T13:44:00.864Z,21.22
2019-03-03T13:46:27.504Z,21.24
2019-03-03T13:48:54.156Z,21.24
2019-03-03T13:51:20.806Z,21.26
2019-03-03T13:53:48.584Z,21.33
2019-03-03T13:56:15.264Z,21.26
2019-03-03T13:58:41.906Z,21.34
2019-03-03T14:01:08.550Z,21.30
2019-03-03T14:03:35.281Z,21.31
2019-03-03T14:06:01.918Z,21.32
2019-03-03T14:08:28.573Z,21.30
2019-03-03T14:10:55.208Z,21.33
2019-03-03T14:13:21.846Z,21.33
2019-03-03T14:15:48.541Z,21.32
2019-03-03T14:18:15.182Z,21.39
2019-03-03T14:20:41.868Z,21.37
2019-03-03T14:23:08.518Z,21.34
2019-03-03T14:25:35.160Z,21.35
2019-03-03T14:28:02.873Z,21.36
2019-03-03T14:30:28.494Z,21.38
2019-03-03T14:32:55.133Z,21.38
2019-03-03T14:35:21.795Z,21.36
2019-03-03T14:37:48.522Z,21.35
2019-03-03T14:40:15.172Z,21.32
2019-03-03T14:42:43.901Z,21.40
2019-03-03T14:45:08.466Z,21.35
2019-03-03T14:47:35.163Z,21.33
2019-03-03T14:50:01.805Z,21.33
2019-03-03T14:52:28.551Z,21.36
2019-03-03T14:54:57.816Z,21.41
2019-03-03T14:57:24.455Z,21.33
2019-03-03T14:59:51.174Z,21.32
2019-03-03T15:02:17.828Z,21.32
2019-03-03T15:04:44.489Z,21.29
2019-03-03T15:07:11.181Z,21.25
2019-03-03T15:09:41.009Z,21.31
2019-03-03T15:12:07.694Z,21.30
2019-03-03T15:14:34.343Z,21.32
2019-03-03T15:17:01.034Z,21.28
2019-03-03T15:19:27.681Z,21.27
2019-03-03T15:21:54.334Z,21.27
2019-03-03T15:24:21.011Z,21.31
2019-03-03T15:26:47.704Z,21.30
2019-03-03T15:29:14.345Z,21.23
2019-03-03T15:31:41.015Z,21.22
2019-03-03T15:34:09.758Z,21.28
2019-03-03T15:36:34.351Z,21.33
2019-03-03T15:39:01.000Z,21.25
2019-03-03T15:41:27.640Z,21.28
2019-03-03T15:43:54.279Z,21.26
2019-03-03T15:46:20.922Z,21.23
2019-03-03T15:48:47.804Z,21.22
2019-03-03T15:51:14.438Z,21.23
2019-03-03T15:53:41.075Z,21.23
2019-03-03T15:56:07.738Z,21.21
2019-03-03T15:58:34.510Z,21.22
2019-03-03T16:01:01.150Z,21.22
2019-03-03T16:03:27.794Z,21.20
2019-03-03T16:05:54.437Z,21.18
2019-03-03T16:08:21.097Z,21.19
2019-03-03T16:10:47.780Z,21.17
2019-03-03T16:13:14.533Z,21.19
2019-03-03T16:15:41.181Z,21.19
2019-03-03T16:18:07.834Z,21.18
2019-03-03T16:20:34.489Z,21.20
2019-03-03T16:23:01.167Z,21.21
2019-03-03T16:25:27.804Z,21.19
2019-03-03T16:27:54.484Z,21.16
2019-03-03T16:30:21.124Z,21.20
2019-03-03T16:32:47.814Z,21.18
2019-03-03T16:35:14.490Z,21.13
2019-03-03T16:37:41.136Z,21.14
2019-03-03T16:40:07.857Z,21.20
2019-03-03T16:42:34.499Z,21.20
2019-03-03T16:45:01.186Z,21.15
2019-03-03T16:47:27.859Z,21.14
2019-03-03T16:49:54.511Z,21.09
2019-03-03T16:52:21.184Z,21.09
2019-03-03T16:54:47.827Z,21.14
2019-03-03T16:57:14.508Z,21.16
2019-03-03T16:59:41.215Z,21.07
2019-03-03T17:02:07.868Z,21.11
2019-03-03T17:04:34.867Z,21.04
2019-03-03T17:07:01.192Z,21.04
2019-03-03T17:09:27.828Z,21.05
2019-03-03T17:11:54.523Z,21.10
2019-03-03T17:14:21.178Z,21.05
2019-03-03T17:16:47.862Z,21.05
2019-03-03T17:19:14.500Z,21.03
2019-03-03T17:21:41.185Z,21.04
2019-03-03T17:24:07.829Z,21.00
2019-03-03T17:26:34.480Z,21.04
2019-03-03T17:29:01.131Z,21.00
2019-03-03T17:31:27.820Z,21.00
2019-03-03T17:33:54.508Z,21.12
2019-03-03T17:36:21.149Z,21.03
2019-03-03T17:38:47.801Z,21.02
2019-03-03T17:41:14.438Z,21.08
2019-03-03T17:43:41.122Z,21.00
2019-03-03T17:46:07.759Z,21.03
2019-03-03T17:48:34.439Z,21.04
2019-03-03T17:51:01.081Z,21.06
2019-03-03T17:53:27.720Z,21.02
2019-03-03T17:55:54.364Z,20.99
2019-03-03T17:58:21.051Z,20.99
2019-03-03T18:00:47.693Z,21.01
2019-03-03T18:03:14.334Z,21.06
2019-03-03T18:05:41.014Z,21.02
2019-03-03T18:08:07.728Z,21.00
2019-03-03T18:10:34.380Z,21.08
2019-03-03T18:13:01.030Z,21.04
2019-03-03T18:15:27.678Z,21.02
2019-03-03T18:17:54.401Z,21.03
2019-03-03T18:20:21.288Z,21.00
2019-03-03T18:22:47.971Z,20.94
2019-03-03T18:25:14.601Z,20.96
2019-03-03T18:27:41.396Z,20.94
2019-03-03T18:30:08.036Z,20.91
2019-03-03T18:32:34.719Z,20.94
2019-03-03T18:35:01.363Z,21.02
2019-03-03T18:37:28.019Z,20.98
2019-03-03T18:39:54.707Z,20.94
2019-03-03T18:42:21.413Z,20.90
2019-03-03T18:44:48.072Z,20.92
2019-03-03T18:47:14.722Z,20.98
2019-03-03T18:49:41.387Z,20.99
2019-03-03T18:52:08.087Z,21.03
2019-03-03T18:54:34.728Z,21.03
2019-03-03T18:57:01.367Z,20.94
2019-03-03T18:59:28.014Z,20.91
2019-03-03T19:01:54.667Z,20.90
2019-03-03T19:04:21.358Z,20.89
2019-03-03T19:06:48.000Z,20.92
2019-03-03T19:09:14.641Z,20.92
2019-03-03T19:11:41.326Z,20.91
2019-03-03T19:14:07.965Z,20.86
2019-03-03T19:16:34.654Z,20.95
2019-03-03T19:19:01.388Z,20.88
2019-03-03T19:21:28.024Z,20.83
2019-03-03T19:23:54.671Z,20.85
2019-03-03T19:26:21.335Z,20.87
2019-03-03T19:28:47.972Z,20.86
2019-03-03T19:31:14.710Z,20.87
2019-03-03T19:33:41.361Z,20.86
2019-03-03T19:36:08.011Z,20.79
2019-03-03T19:38:34.700Z,20.85
2019-03-03T19:41:01.338Z,20.81
2019-03-03T19:43:28.230Z,20.72
2019-03-03T19:45:54.671Z,20.54
2019-03-03T19:48:21.315Z,20.44
2019-03-03T19:50:48.001Z,20.51
2019-03-03T19:53:14.647Z,20.48
2019-03-03T19:55:41.295Z,20.49
2019-03-03T19:58:07.927Z,20.55
2019-03-03T20:00:36.778Z,20.53
2019-03-03T20:03:01.264Z,20.58
2019-03-03T20:05:29.205Z,20.57
2019-03-03T20:07:54.629Z,20.64
2019-03-03T20:10:21.286Z,20.62
2019-03-03T20:12:47.924Z,20.58
2019-03-03T20:15:14.663Z,20.64
2019-03-03T20:17:41.310Z,20.59
2019-03-03T20:20:07.946Z,20.63
2019-03-03T20:22:34.658Z,20.64
2019-03-03T20:25:01.296Z,20.58
2019-03-03T20:27:27.938Z,20.60
2019-03-03T20:29:54.590Z,20.58
2019-03-03T20:32:21.395Z,20.66
2019-03-03T20:34:48.031Z,20.63
2019-03-03T20:37:14.676Z,20.66
2019-03-03T20:39:41.333Z,20.59
2019-03-03T20:42:07.979Z,20.60
2019-03-03T20:44:34.669Z,20.61
2019-03-03T20:47:01.343Z,20.63
2019-03-03T20:49:27.979Z,20.63
2019-03-03T20:51:54.634Z,20.58
2019-03-03T20:54:21.279Z,20.62
2019-03-03T20:56:47.963Z,20.59
2019-03-03T20:59:14.609Z,20.54
2019-03-03T21:01:41.263Z,20.55
2019-03-03T21:04:07.925Z,20.55
2019-03-03T21:06:34.568Z,20.58
2019-03-03T21:09:01.258Z,20.52
2019-03-03T21:11:27.895Z,20.50
2019-03-03T21:13:54.589Z,20.55
2019-03-03T21:16:21.232Z,20.49
2019-03-03T21:18:47.874Z,20.47
2019-03-03T21:21:14.570Z,20.50
2019-03-03T21:23:41.217Z,20.48
2019-03-03T21:26:07.924Z,20.51
2019-03-03T21:28:34.569Z,20.50
2019-03-03T21:31:01.223Z,20.51
2019-03-03T21:33:27.906Z,20.49
2019-03-03T21:35:54.544Z,20.47
2019-03-03T21:38:21.287Z,20.51
2019-03-03T21:40:47.925Z,20.42
2019-03-03T21:43:14.611Z,20.40
2019-03-03T21:45:41.246Z,20.43
2019-03-03T21:48:07.897Z,20.37
2019-03-03T21:50:34.532Z,20.43
2019-03-03T21:53:01.185Z,20.46
2019-03-03T21:55:27.882Z,20.42
2019-03-03T21:57:54.526Z,20.47
2019-03-03T22:00:21.178Z,20.38
2019-03-03T22:02:47.812Z,20.40
2019-03-03T22:05:14.459Z,20.35
2019-03-03T22:07:41.142Z,20.41
2019-03-03T22:10:07.788Z,20.34
2019-03-03T22:12:34.438Z,20.37
2019-03-03T22:15:01.085Z,20.29
2019-03-03T22:17:27.763Z,20.36
2019-03-03T22:19:54.408Z,20.32
2019-03-03T22:22:21.099Z,20.30
2019-03-03T22:24:47.741Z,20.29
2019-03-03T22:27:14.380Z,20.38
2019-03-03T22:29:41.074Z,20.30
2019-03-03T22:32:07.725Z,20.30
2019-03-03T22:34:34.452Z,20.26
2019-03-03T22:37:01.102Z,20.27
2019-03-03T22:39:27.747Z,20.25
2019-03-03T22:41:54.431Z,20.23
2019-03-03T22:44:21.092Z,20.28
2019-03-03T22:46:47.738Z,20.22
2019-03-03T22:49:14.390Z,20.25
2019-03-03T22:51:41.027Z,20.23
2019-03-03T22:54:07.676Z,20.19
2019-03-03T22:56:34.305Z,20.21
2019-03-03T22:59:00.949Z,20.22
2019-03-03T23:01:27.588Z,20.20
2019-03-03T23:03:54.318Z,20.21
2019-03-03T23:06:20.951Z,20.17
2019-03-03T23:08:47.637Z,20.09
2019-03-03T23:11:14.310Z,20.12
2019-03-03T23:13:40.960Z,20.14
2019-03-03T23:16:07.619Z,20.12
2019-03-03T23:18:34.314Z,20.10
2019-03-03T23:21:00.948Z,20.08
2019-03-03T23:23:27.585Z,20.12
2019-03-03T23:25:54.270Z,20.09
2019-03-03T23:28:20.909Z,20.12
2019-03-03T23:30:47.626Z,20.07
2019-03-03T23:33:14.320Z,20.04
2019-03-03T23:35:40.962Z,20.10
2019-03-03T23:38:07.602Z,20.00
2019-03-03T23:40:34.313Z,20.08
2019-03-03T23:43:00.960Z,20.07
2019-03-03T23:45:27.598Z,19.99
2019-03-03T23:47:54.255Z,19.98
2019-03-03T23:50:20.904Z,20.06
2019-03-03T23:52:47.589Z,19.98
2019-03-03T23:55:14.228Z,20.04
2019-03-03T23:57:40.874Z,19.92
